createdAt,value
2023-04-06T00:02:01.709Z,4.13
2023-04-06T00:04:29.304Z,6.37
2023-04-06T00:06:57.597Z,8.90
2023-04-06T00:09:25.372Z,7.50
2023-04-06T00:11:53.061Z,5.13
2023-04-06T00:14:21.260Z,8.00
2023-04-06T00:16:48.967Z,3.33
2023-04-06T00:19:16.610Z,5.37
2023-04-06T00:21:44.337Z,3.10
2023-04-06T00:24:12.092Z,5.90
2023-04-06T00:26:39.690Z,4.10
2023-04-06T00:29:07.938Z,5.70
2023-04-06T00:31:36.035Z,3.90
2023-04-06T00:34:04.353Z,3.73
2023-04-06T00:36:32.292Z,6.67
2023-04-06T00:39:00.064Z,5.30
2023-04-06T00:41:27.805Z,7.40
2023-04-06T00:43:56.338Z,6.37
2023-04-06T00:46:24.262Z,5.67
2023-04-06T00:48:52.224Z,4.77
2023-04-06T00:51:19.831Z,7.83
2023-04-06T00:53:47.885Z,6.40
2023-04-06T00:56:15.849Z,5.17
2023-04-06T00:58:53.192Z,6.10
2023-04-06T01:01:21.414Z,9.47
2023-04-06T01:03:52.721Z,4.63
2023-04-06T01:06:21.635Z,6.67
2023-04-06T01:08:58.205Z,13.87
2023-04-06T01:11:27.458Z,14.73
2023-04-06T01:13:56.172Z,16.13
2023-04-06T01:16:43.105Z,12.60
2023-04-06T01:19:14.747Z,7.60
2023-04-06T01:21:47.750Z,9.10
2023-04-06T01:24:33.968Z,6.13
2023-04-06T01:27:02.309Z,4.40
2023-04-06T01:29:38.757Z,7.87
2023-04-06T01:32:11.905Z,7.87
2023-04-06T01:34:47.955Z,7.03
2023-04-06T01:37:16.081Z,7.20
2023-04-06T01:39:45.711Z,8.77
2023-04-06T01:42:20.634Z,9.77
2023-04-06T01:44:49.696Z,7.13
2023-04-06T01:47:17.889Z,4.80
2023-04-06T01:49:45.897Z,7.70
2023-04-06T01:52:16.757Z,5.63
2023-04-06T01:54:51.800Z,3.30
2023-04-06T01:57:36.151Z,4.77
2023-04-06T02:00:15.505Z,4.20
2023-04-06T02:02:47.294Z,6.63
2023-04-06T02:05:25.305Z,7.60
2023-04-06T02:07:54.549Z,7.05
2023-04-06T02:10:30.877Z,7.93
2023-04-06T02:13:01.808Z,7.90
2023-04-06T02:15:29.524Z,5.27
2023-04-06T02:17:58.378Z,9.10
2023-04-06T02:20:26.235Z,7.80
2023-04-06T02:22:53.900Z,8.07
2023-04-06T02:25:22.680Z,8.77
2023-04-06T02:27:50.469Z,10.67
2023-04-06T02:30:18.140Z,8.97
2023-04-06T02:32:46.420Z,5.43
2023-04-06T02:35:14.775Z,12.00
2023-04-06T02:37:42.473Z,5.67
2023-04-06T02:40:11.040Z,5.50
2023-04-06T02:42:38.684Z,8.93
2023-04-06T02:45:07.441Z,4.37
2023-04-06T02:47:41.354Z,7.77
2023-04-06T02:50:09.892Z,7.90
2023-04-06T02:52:44.244Z,7.77
2023-04-06T02:55:13.206Z,7.53
2023-04-06T02:57:40.913Z,6.20
2023-04-06T03:00:09.100Z,7.67
2023-04-06T03:02:41.291Z,4.45
2023-04-06T03:05:13.153Z,5.13
2023-04-06T03:07:44.340Z,6.27
2023-04-06T03:10:18.956Z,6.00
2023-04-06T03:12:48.471Z,6.30
2023-04-06T03:15:23.825Z,8.10
2023-04-06T03:17:58.806Z,4.53
2023-04-06T03:20:34.792Z,5.70
2023-04-06T03:23:03.051Z,5.47
2023-04-06T03:25:35.691Z,5.60
2023-04-06T03:28:06.396Z,5.37
2023-04-06T03:30:39.123Z,10.18
2023-04-06T03:33:07.583Z,5.33
2023-04-06T03:35:43.193Z,5.90
2023-04-06T03:38:11.817Z,10.50
2023-04-06T03:40:39.476Z,6.27
2023-04-06T03:43:07.318Z,8.40
2023-04-06T03:45:37.698Z,8.67
2023-04-06T03:48:06.851Z,4.30
2023-04-06T03:50:37.378Z,4.37
2023-04-06T03:53:06.490Z,6.20
2023-04-06T03:55:35.083Z,6.73
2023-04-06T03:58:03.501Z,9.73
2023-04-06T04:00:31.238Z,11.83
2023-04-06T04:02:58.970Z,8.97
2023-04-06T04:05:26.918Z,6.37
2023-04-06T04:07:55.556Z,18.83
2023-04-06T04:10:27.045Z,9.05
2023-04-06T04:12:54.854Z,12.47
2023-04-06T04:15:23.033Z,20.57
2023-04-06T04:17:52.009Z,11.33
2023-04-06T04:20:19.619Z,4.67
2023-04-06T04:22:47.367Z,10.90
2023-04-06T04:25:15.048Z,15.07
2023-04-06T04:27:47.642Z,15.38
2023-04-06T04:30:16.509Z,12.20
2023-04-06T04:32:44.084Z,13.80
2023-04-06T04:35:12.477Z,15.70
2023-04-06T04:37:42.521Z,27.53
2023-04-06T04:40:11.756Z,13.87
2023-04-06T04:42:52.032Z,26.43
2023-04-06T04:45:29.635Z,20.00
2023-04-06T04:47:59.324Z,29.07
2023-04-06T04:50:33.560Z,13.40
2023-04-06T04:53:02.235Z,49.53
2023-04-06T04:55:30.480Z,31.03
2023-04-06T04:58:01.227Z,42.37
2023-04-06T05:00:49.073Z,16.97
2023-04-06T05:03:24.452Z,12.73
2023-04-06T05:06:02.198Z,17.23
2023-04-06T05:08:33.625Z,50.47
2023-04-06T05:11:02.632Z,28.67
2023-04-06T05:13:34.626Z,32.72
2023-04-06T05:16:08.242Z,31.80
2023-04-06T05:18:37.121Z,22.60
2023-04-06T05:21:06.512Z,12.63
2023-04-06T05:23:46.347Z,28.77
2023-04-06T05:26:14.167Z,19.17
2023-04-06T05:28:43.703Z,29.93
2023-04-06T05:31:12.205Z,28.90
2023-04-06T05:33:47.461Z,22.87
2023-04-06T05:36:17.412Z,15.40
2023-04-06T05:38:48.104Z,7.87
2023-04-06T05:41:36.829Z,10.50
2023-04-06T05:44:05.053Z,7.27
2023-04-06T05:46:34.052Z,7.53
2023-04-06T05:49:06.919Z,8.30
2023-04-06T05:51:36.408Z,8.30
2023-04-06T05:54:04.151Z,8.13
2023-04-06T05:56:33.078Z,6.30
2023-04-06T05:59:02.572Z,7.93
2023-04-06T06:01:31.895Z,6.83
2023-04-06T06:04:02.127Z,8.03
2023-04-06T06:06:32.913Z,4.40
2023-04-06T06:09:14.789Z,9.07
2023-04-06T06:11:50.640Z,7.27
2023-04-06T06:14:19.796Z,8.77
2023-04-06T06:16:47.533Z,6.80
2023-04-06T06:19:17.262Z,10.67
2023-04-06T06:21:46.362Z,6.17
2023-04-06T06:24:14.095Z,4.80
2023-04-06T06:26:41.904Z,9.33
2023-04-06T06:29:12.134Z,5.40
2023-04-06T06:31:41.119Z,8.23
2023-04-06T06:34:08.861Z,8.10
2023-04-06T06:36:38.524Z,6.07
2023-04-06T06:39:09.657Z,9.40
2023-04-06T06:41:38.082Z,9.13
2023-04-06T06:44:06.874Z,6.10
2023-04-06T06:46:36.762Z,4.77
2023-04-06T06:49:04.633Z,9.13
2023-04-06T06:51:32.384Z,5.97
2023-04-06T06:54:00.220Z,4.63
2023-04-06T06:56:29.114Z,5.85
2023-04-06T06:59:15.799Z,6.30
2023-04-06T07:01:44.035Z,8.00
2023-04-06T07:04:11.964Z,10.50
2023-04-06T07:06:40.310Z,7.87
2023-04-06T07:09:08.306Z,7.33
2023-04-06T07:11:35.918Z,8.57
2023-04-06T07:14:03.632Z,13.23
2023-04-06T07:16:32.018Z,7.97
2023-04-06T07:18:59.608Z,6.20
2023-04-06T07:21:27.785Z,8.57
2023-04-06T07:23:55.729Z,8.38
2023-04-06T07:26:23.704Z,6.85
2023-04-06T07:28:51.286Z,10.97
2023-04-06T07:31:19.897Z,10.93
2023-04-06T07:33:48.147Z,7.88
2023-04-06T07:36:16.116Z,12.45
2023-04-06T07:38:44.809Z,8.52
2023-04-06T07:41:12.473Z,11.07
2023-04-06T07:43:40.664Z,9.57
2023-04-06T07:46:08.954Z,10.27
2023-04-06T07:48:38.564Z,8.40
2023-04-06T07:51:07.956Z,8.75
2023-04-06T07:53:39.494Z,7.30
2023-04-06T07:56:07.215Z,4.90
2023-04-06T07:58:34.887Z,7.68
2023-04-06T08:01:03.008Z,13.95
2023-04-06T08:03:30.895Z,7.95
2023-04-06T08:05:58.652Z,10.70
2023-04-06T08:08:26.401Z,7.22
2023-04-06T08:10:54.341Z,6.70
2023-04-06T08:13:22.483Z,5.70
2023-04-06T08:15:50.210Z,9.20
2023-04-06T08:18:18.028Z,12.45
2023-04-06T08:20:45.665Z,8.82
2023-04-06T08:23:13.409Z,5.40
2023-04-06T08:25:41.214Z,7.45
2023-04-06T08:28:10.722Z,4.93
2023-04-06T08:30:41.535Z,6.38
2023-04-06T08:33:09.218Z,6.78
2023-04-06T08:35:36.987Z,8.07
2023-04-06T08:38:04.755Z,8.93
2023-04-06T08:40:37.876Z,7.80
2023-04-06T08:43:09.894Z,7.68
2023-04-06T08:45:37.622Z,5.13
2023-04-06T08:48:07.906Z,7.95
2023-04-06T08:50:36.509Z,5.00
2023-04-06T08:53:04.553Z,10.10
2023-04-06T08:55:32.515Z,12.43
2023-04-06T08:58:00.728Z,5.88
2023-04-06T09:00:29.262Z,7.90
2023-04-06T09:02:58.687Z,5.38
2023-04-06T09:05:26.955Z,4.75
2023-04-06T09:07:54.922Z,4.15
2023-04-06T09:10:24.424Z,5.93
2023-04-06T09:12:52.545Z,5.93
2023-04-06T09:15:24.923Z,7.13
2023-04-06T09:20:26.956Z,5.63
2023-04-06T09:22:55.350Z,8.73
2023-04-06T09:25:24.992Z,7.25
2023-04-06T09:28:04.751Z,14.25
2023-04-06T09:30:32.507Z,8.27
2023-04-06T09:33:01.072Z,5.68
2023-04-06T09:35:31.126Z,7.70
2023-04-06T09:37:58.894Z,8.63
2023-04-06T09:40:26.735Z,4.80
2023-04-06T09:42:58.620Z,6.80
2023-04-06T09:45:27.765Z,5.43
2023-04-06T09:47:57.528Z,7.45
2023-04-06T09:50:26.728Z,3.60
2023-04-06T09:52:57.996Z,9.15
2023-04-06T09:55:44.658Z,8.57
2023-04-06T09:58:17.087Z,13.57
2023-04-06T10:00:54.381Z,9.93
2023-04-06T10:03:27.313Z,8.35
2023-04-06T10:08:32.482Z,6.25
2023-04-06T10:11:01.988Z,6.75
2023-04-06T10:13:29.792Z,8.25
2023-04-06T10:15:58.507Z,4.60
2023-04-06T10:18:26.697Z,6.55
2023-04-06T10:21:09.866Z,5.10
2023-04-06T10:23:44.763Z,5.95
2023-04-06T10:26:17.895Z,7.82
2023-04-06T10:28:49.424Z,7.05
2023-04-06T10:31:28.541Z,6.63
2023-04-06T10:34:03.915Z,3.72
2023-04-06T10:36:35.934Z,5.35
2023-04-06T10:39:06.875Z,6.55
2023-04-06T10:41:42.947Z,5.28
2023-04-06T10:44:22.952Z,6.45
2023-04-06T10:46:56.226Z,10.35
2023-04-06T10:49:27.332Z,3.80
2023-04-06T10:51:56.957Z,8.40
2023-04-06T10:54:27.501Z,5.53
2023-04-06T10:56:55.048Z,9.40
2023-04-06T10:59:23.778Z,5.40
2023-04-06T11:01:51.581Z,9.38
2023-04-06T11:04:21.025Z,5.60
2023-04-06T11:06:50.123Z,5.35
2023-04-06T11:09:32.676Z,5.60
2023-04-06T11:12:00.413Z,5.65
2023-04-06T11:14:28.200Z,8.68
2023-04-06T11:16:56.218Z,5.78
2023-04-06T11:19:24.135Z,5.18
2023-04-06T11:21:52.641Z,5.85
2023-04-06T11:24:22.768Z,4.93
2023-04-06T11:26:59.324Z,4.13
2023-04-06T11:29:28.868Z,3.92
2023-04-06T11:32:07.566Z,6.07
2023-04-06T11:34:41.980Z,6.10
2023-04-06T11:37:12.109Z,8.80
2023-04-06T11:39:52.172Z,4.68
2023-04-06T11:42:30.581Z,10.05
2023-04-06T11:44:59.657Z,5.80
2023-04-06T11:47:38.784Z,5.88
2023-04-06T11:50:14.561Z,6.28
2023-04-06T11:52:43.216Z,4.85
2023-04-06T11:55:18.452Z,3.72
2023-04-06T11:57:46.348Z,6.55
2023-04-06T12:00:14.629Z,4.97
2023-04-06T12:02:47.628Z,4.95
2023-04-06T12:05:15.958Z,5.88
2023-04-06T12:07:43.937Z,4.97
2023-04-06T12:10:11.637Z,4.28
2023-04-06T12:12:39.213Z,6.75
2023-04-06T12:15:07.816Z,4.70
2023-04-06T12:17:35.909Z,3.55
2023-04-06T12:20:09.381Z,5.45
2023-04-06T12:22:41.358Z,5.55
2023-04-06T12:25:09.331Z,9.80
2023-04-06T12:27:36.944Z,3.55
2023-04-06T12:30:05.380Z,4.60
2023-04-06T12:32:33.171Z,7.75
2023-04-06T12:35:01.015Z,3.65
2023-04-06T12:37:28.782Z,4.72
2023-04-06T12:39:56.373Z,2.85
2023-04-06T12:42:23.958Z,5.43
2023-04-06T12:44:51.837Z,3.33
2023-04-06T12:47:19.666Z,5.20
2023-04-06T12:49:47.611Z,2.88
2023-04-06T12:52:15.377Z,2.67
2023-04-06T12:54:43.371Z,4.43
2023-04-06T12:57:11.168Z,4.05
2023-04-06T12:59:38.807Z,10.95
2023-04-06T13:02:06.734Z,26.48
2023-04-06T13:04:34.624Z,4.78
2023-04-06T13:07:02.147Z,7.93
2023-04-06T13:09:29.864Z,6.20
2023-04-06T13:11:57.756Z,21.50
2023-04-06T13:14:25.675Z,7.93
2023-04-06T13:16:56.220Z,7.22
2023-04-06T13:19:23.901Z,2.92
2023-04-06T13:21:51.622Z,7.28
2023-04-06T13:24:20.662Z,12.13
2023-04-06T13:26:48.512Z,3.60
2023-04-06T13:29:16.155Z,12.73
2023-04-06T13:31:43.920Z,8.82
2023-04-06T13:34:11.875Z,5.53
2023-04-06T13:36:42.449Z,4.57
2023-04-06T13:39:10.390Z,4.18
2023-04-06T13:41:38.110Z,3.17
2023-04-06T13:44:05.738Z,14.88
2023-04-06T13:46:33.426Z,5.50
2023-04-06T13:49:01.152Z,6.80
2023-04-06T13:51:29.144Z,3.40
2023-04-06T13:53:56.734Z,8.48
2023-04-06T13:56:24.410Z,6.78
2023-04-06T13:58:56.058Z,7.55
2023-04-06T14:01:24.855Z,3.47
2023-04-06T14:03:52.987Z,5.28
2023-04-06T14:06:30.536Z,4.38
2023-04-06T14:09:00.563Z,6.95
2023-04-06T14:11:28.959Z,5.15
2023-04-06T14:13:58.623Z,5.13
2023-04-06T14:16:26.777Z,6.10
2023-04-06T14:18:54.607Z,5.82
2023-04-06T14:21:22.398Z,4.95
2023-04-06T14:23:49.981Z,7.55
2023-04-06T14:26:17.720Z,12.45
2023-04-06T14:28:47.392Z,19.35
2023-04-06T14:31:16.749Z,7.90
2023-04-06T14:33:44.665Z,5.78
2023-04-06T14:36:12.620Z,5.53
2023-04-06T14:38:41.738Z,6.03
2023-04-06T14:41:11.713Z,3.65
2023-04-06T14:43:39.347Z,5.53
2023-04-06T14:46:09.495Z,24.05
2023-04-06T14:48:37.701Z,31.88
2023-04-06T14:51:05.601Z,9.68
2023-04-06T14:53:33.400Z,6.82
2023-04-06T14:56:02.263Z,8.10
2023-04-06T14:58:30.113Z,8.63
2023-04-06T15:00:59.840Z,5.35
2023-04-06T15:03:28.563Z,7.30
2023-04-06T15:05:57.453Z,6.15
2023-04-06T15:08:25.575Z,11.95
2023-04-06T15:10:55.690Z,8.07
2023-04-06T15:13:23.411Z,5.45
2023-04-06T15:15:52.758Z,5.70
2023-04-06T15:18:21.096Z,6.40
2023-04-06T15:20:49.169Z,6.20
2023-04-06T15:23:16.784Z,6.40
2023-04-06T15:25:44.750Z,7.20
2023-04-06T15:28:12.616Z,6.57
2023-04-06T15:30:40.932Z,9.80
2023-04-06T15:33:09.514Z,6.22
2023-04-06T15:35:42.948Z,7.05
2023-04-06T15:38:11.752Z,8.40
2023-04-06T15:40:50.242Z,8.88
2023-04-06T15:43:17.991Z,6.18
2023-04-06T15:45:45.653Z,7.65
2023-04-06T15:48:13.383Z,7.63
2023-04-06T15:50:41.436Z,11.40
2023-04-06T15:53:09.394Z,8.32
2023-04-06T15:55:37.214Z,7.13
2023-04-06T15:58:04.855Z,8.98
2023-04-06T16:00:32.568Z,7.82
2023-04-06T16:03:00.530Z,8.32
2023-04-06T16:05:34.292Z,4.25
2023-04-06T16:08:02.595Z,9.20
2023-04-06T16:10:30.298Z,8.45
2023-04-06T16:12:57.894Z,9.15
2023-04-06T16:15:25.700Z,11.15
2023-04-06T16:17:53.377Z,10.48
2023-04-06T16:20:20.984Z,16.05
2023-04-06T16:22:49.855Z,12.35
2023-04-06T16:25:17.553Z,9.55
2023-04-06T16:27:46.125Z,13.25
2023-04-06T16:30:14.406Z,9.73
2023-04-06T16:32:43.571Z,13.80
2023-04-06T16:35:11.254Z,12.45
2023-04-06T16:37:38.926Z,6.63
2023-04-06T16:40:07.564Z,7.15
2023-04-06T16:42:35.505Z,10.05
2023-04-06T16:45:03.271Z,8.30
2023-04-06T16:47:31.108Z,7.10
2023-04-06T16:50:05.371Z,9.38
2023-04-06T16:52:35.809Z,11.80
2023-04-06T16:55:04.126Z,10.80
2023-04-06T16:57:31.849Z,13.07
2023-04-06T17:00:00.767Z,11.98
2023-04-06T17:02:28.648Z,13.90
2023-04-06T17:04:56.379Z,14.25
2023-04-06T17:07:28.831Z,12.10
2023-04-06T17:09:56.607Z,11.95
2023-04-06T17:12:24.170Z,11.20
2023-04-06T17:14:51.836Z,13.68
2023-04-06T17:17:19.529Z,13.15
2023-04-06T17:19:47.119Z,5.43
2023-04-06T17:22:20.631Z,13.98
2023-04-06T17:24:49.358Z,12.15
2023-04-06T17:27:17.047Z,16.08
2023-04-06T17:29:44.644Z,12.40
2023-04-06T17:32:12.385Z,14.75
2023-04-06T17:34:40.161Z,12.80
2023-04-06T17:37:08.113Z,16.05
2023-04-06T17:39:35.934Z,18.63
2023-04-06T17:42:04.993Z,16.00
2023-04-06T17:44:33.530Z,9.73
2023-04-06T17:47:01.732Z,8.68
2023-04-06T17:49:29.604Z,16.70
2023-04-06T17:51:57.612Z,8.82
2023-04-06T17:54:25.134Z,12.05
2023-04-06T17:56:53.624Z,18.23
2023-04-06T17:59:21.282Z,11.52
2023-04-06T18:01:48.995Z,14.70
2023-04-06T18:04:17.034Z,15.33
2023-04-06T18:06:44.744Z,17.97
2023-04-06T18:09:12.697Z,16.07
2023-04-06T18:11:40.738Z,14.53
2023-04-06T18:14:09.759Z,11.77
2023-04-06T18:16:37.513Z,13.03
2023-04-06T18:19:05.146Z,12.38
2023-04-06T18:21:32.899Z,10.47
2023-04-06T18:24:04.762Z,12.53
2023-04-06T18:26:34.049Z,12.93
2023-04-06T18:29:01.965Z,11.73
2023-04-06T18:31:30.984Z,11.30
2023-04-06T18:33:59.223Z,10.05
2023-04-06T18:36:27.753Z,9.95
2023-04-06T18:38:55.470Z,15.88
2023-04-06T18:41:23.226Z,13.77
2023-04-06T18:43:50.970Z,12.75
2023-04-06T18:46:19.925Z,13.27
2023-04-06T18:48:47.906Z,18.77
2023-04-06T18:51:15.663Z,11.27
2023-04-06T18:53:43.333Z,12.47
2023-04-06T18:56:19.202Z,11.13
2023-04-06T18:58:49.178Z,13.00
2023-04-06T19:01:25.254Z,12.35
2023-04-06T19:03:54.305Z,10.13
2023-04-06T19:06:23.041Z,17.10
2023-04-06T19:08:51.356Z,13.47
2023-04-06T19:11:20.358Z,13.07
2023-04-06T19:13:50.449Z,11.53
2023-04-06T19:16:19.069Z,13.77
2023-04-06T19:18:47.228Z,12.00
2023-04-06T19:21:19.837Z,13.83
2023-04-06T19:23:49.685Z,11.85
2023-04-06T19:26:19.776Z,12.20
2023-04-06T19:28:48.064Z,13.83
2023-04-06T19:31:18.032Z,12.83
2023-04-06T19:33:46.989Z,11.00
2023-04-06T19:36:14.843Z,12.63
2023-04-06T19:38:42.565Z,12.98
2023-04-06T19:41:10.286Z,18.60
2023-04-06T19:43:37.942Z,10.90
2023-04-06T19:46:06.159Z,10.98
2023-04-06T19:48:34.128Z,12.20
2023-04-06T19:51:01.956Z,14.02
2023-04-06T19:53:29.919Z,12.18
2023-04-06T19:55:57.781Z,11.80
2023-04-06T19:58:25.734Z,10.15
2023-04-06T20:00:53.695Z,14.60
2023-04-06T20:03:21.525Z,14.15
2023-04-06T20:05:49.380Z,14.27
2023-04-06T20:08:16.930Z,15.77
2023-04-06T20:10:44.920Z,15.30
2023-04-06T20:13:12.531Z,11.52
2023-04-06T20:15:40.868Z,10.85
2023-04-06T20:18:08.995Z,16.77
2023-04-06T20:20:36.978Z,12.88
2023-04-06T20:23:04.703Z,14.15
2023-04-06T20:25:32.391Z,14.10
2023-04-06T20:28:00.155Z,13.55
2023-04-06T20:30:27.970Z,11.85
2023-04-06T20:32:55.729Z,12.98
2023-04-06T20:35:23.426Z,11.13
2023-04-06T20:37:51.483Z,11.98
2023-04-06T20:40:20.075Z,16.23
2023-04-06T20:42:48.401Z,11.15
2023-04-06T20:45:16.243Z,15.55
2023-04-06T20:47:45.008Z,11.45
2023-04-06T20:50:12.818Z,16.40
2023-04-06T20:52:40.835Z,9.05
2023-04-06T20:55:09.100Z,11.50
2023-04-06T20:57:36.727Z,13.13
2023-04-06T21:00:05.389Z,17.70
2023-04-06T21:02:33.239Z,10.27
2023-04-06T21:05:01.333Z,12.70
2023-04-06T21:07:28.971Z,12.65
2023-04-06T21:09:57.135Z,11.60
2023-04-06T21:12:24.809Z,12.43
2023-04-06T21:14:53.123Z,12.25
2023-04-06T21:17:21.726Z,13.13
2023-04-06T21:19:49.509Z,12.43
2023-04-06T21:22:17.277Z,14.45
2023-04-06T21:25:16.196Z,12.85
2023-04-06T21:27:43.906Z,13.10
2023-04-06T21:30:12.262Z,8.20
2023-04-06T21:32:39.983Z,10.52
2023-04-06T21:35:08.214Z,12.05
2023-04-06T21:37:35.934Z,10.70
2023-04-06T21:40:04.294Z,13.63
2023-04-06T21:42:32.509Z,11.43
2023-04-06T21:45:00.284Z,9.93
2023-04-06T21:47:27.950Z,12.38
2023-04-06T21:49:55.603Z,12.52
2023-04-06T21:52:23.688Z,11.10
2023-04-06T21:54:51.409Z,9.65
2023-04-06T21:57:19.188Z,11.40
2023-04-06T21:59:46.906Z,7.68
2023-04-06T22:02:15.187Z,7.68
2023-04-06T22:04:43.931Z,12.93
2023-04-06T22:07:13.696Z,9.40
2023-04-06T22:09:41.748Z,8.07
2023-04-06T22:12:09.370Z,9.40
2023-04-06T22:14:37.013Z,10.05
2023-04-06T22:17:04.860Z,9.80
2023-04-06T22:19:32.546Z,11.10
2023-04-06T22:22:00.515Z,9.82
2023-04-06T22:24:28.126Z,12.38
2023-04-06T22:26:56.925Z,13.13
2023-04-06T22:29:24.630Z,15.18
2023-04-06T22:31:52.260Z,17.40
2023-04-06T22:34:20.005Z,13.35
2023-04-06T22:36:47.666Z,13.95
2023-04-06T22:39:15.562Z,15.02
2023-04-06T22:41:43.148Z,11.60
2023-04-06T22:44:10.910Z,24.05
2023-04-06T22:46:38.529Z,12.95
2023-04-06T22:49:06.095Z,12.77
2023-04-06T22:51:34.061Z,9.30
2023-04-06T22:54:01.819Z,14.50
2023-04-06T22:56:29.471Z,13.00
2023-04-06T22:58:57.154Z,15.05
2023-04-06T23:01:24.858Z,11.55
2023-04-06T23:03:52.973Z,10.18
2023-04-06T23:06:20.845Z,8.00
2023-04-06T23:08:48.646Z,9.20
2023-04-06T23:11:16.512Z,12.00
2023-04-06T23:13:44.118Z,10.02
2023-04-06T23:16:12.294Z,10.93
2023-04-06T23:18:40.090Z,11.73
2023-04-06T23:21:08.172Z,10.52
2023-04-06T23:23:36.065Z,11.93
2023-04-06T23:26:03.834Z,13.18
2023-04-06T23:28:31.567Z,11.80
2023-04-06T23:30:59.304Z,14.77
2023-04-06T23:33:28.512Z,18.08
2023-04-06T23:35:56.541Z,12.57
2023-04-06T23:38:24.263Z,15.60
2023-04-06T23:40:51.962Z,15.45
2023-04-06T23:43:19.647Z,14.25
2023-04-06T23:45:47.230Z,12.18
2023-04-06T23:48:14.990Z,12.65
2023-04-06T23:50:42.630Z,17.33
2023-04-06T23:53:10.497Z,13.85
2023-04-06T23:55:38.199Z,16.60
2023-04-06T23:58:05.924Z,15.73
